sensor_id;sensor_type;location;lat;lon;timestamp;P1;durP1;ratioP1;P2;durP2;ratioP2
1977;SDS011;989;53.016;8.346;2023-02-28T00:00:51;12.20;;;5.07;;
1977;SDS011;989;53.016;8.346;2023-02-28T00:03:17;8.80;;;4.45;;
1977;SDS011;989;53.016;8.346;2023-02-28T00:05:43;13.65;;;4.80;;
1977;SDS011;989;53.016;8.346;2023-02-28T00:08:09;11.88;;;5.80;;
1977;SDS011;989;53.016;8.346;2023-02-28T00:10:35;13.63;;;5.95;;
1977;SDS011;989;53.016;8.346;2023-02-28T00:13:02;12.33;;;6.40;;
1977;SDS011;989;53.016;8.346;2023-02-28T00:15:29;13.15;;;5.28;;
1977;SDS011;989;53.016;8.346;2023-02-28T00:17:55;9.55;;;5.75;;
1977;SDS011;989;53.016;8.346;2023-02-28T00:20:22;14.93;;;6.05;;
1977;SDS011;989;53.016;8.346;2023-02-28T00:22:49;8.88;;;5.65;;
1977;SDS011;989;53.016;8.346;2023-02-28T00:25:16;11.15;;;4.97;;
1977;SDS011;989;53.016;8.346;2023-02-28T00:27:43;11.43;;;5.32;;
1977;SDS011;989;53.016;8.346;2023-02-28T00:30:10;13.50;;;5.75;;
1977;SDS011;989;53.016;8.346;2023-02-28T00:32:37;9.70;;;5.53;;
1977;SDS011;989;53.016;8.346;2023-02-28T00:35:03;18.25;;;6.55;;
1977;SDS011;989;53.016;8.346;2023-02-28T00:37:30;11.48;;;5.10;;
1977;SDS011;989;53.016;8.346;2023-02-28T00:39:56;12.70;;;5.50;;
1977;SDS011;989;53.016;8.346;2023-02-28T00:42:22;9.00;;;5.10;;
1977;SDS011;989;53.016;8.346;2023-02-28T00:44:48;8.40;;;4.90;;
1977;SDS011;989;53.016;8.346;2023-02-28T00:47:14;10.63;;;5.57;;
1977;SDS011;989;53.016;8.346;2023-02-28T00:49:40;10.73;;;5.35;;
1977;SDS011;989;53.016;8.346;2023-02-28T00:52:07;11.10;;;5.72;;
1977;SDS011;989;53.016;8.346;2023-02-28T00:54:33;11.10;;;5.90;;
1977;SDS011;989;53.016;8.346;2023-02-28T00:56:59;9.75;;;4.88;;
1977;SDS011;989;53.016;8.346;2023-02-28T00:59:25;11.07;;;5.55;;
1977;SDS011;989;53.016;8.346;2023-02-28T01:01:51;10.57;;;6.13;;
1977;SDS011;989;53.016;8.346;2023-02-28T01:04:17;9.18;;;5.80;;
1977;SDS011;989;53.016;8.346;2023-02-28T01:06:43;9.40;;;4.95;;
1977;SDS011;989;53.016;8.346;2023-02-28T01:09:09;10.13;;;5.60;;
1977;SDS011;989;53.016;8.346;2023-02-28T01:11:35;9.88;;;5.53;;
1977;SDS011;989;53.016;8.346;2023-02-28T01:14:02;16.27;;;6.47;;
1977;SDS011;989;53.016;8.346;2023-02-28T01:16:29;11.80;;;5.72;;
1977;SDS011;989;53.016;8.346;2023-02-28T01:18:55;15.82;;;5.35;;
1977;SDS011;989;53.016;8.346;2023-02-28T01:21:22;12.77;;;5.30;;
1977;SDS011;989;53.016;8.346;2023-02-28T01:23:48;11.05;;;6.63;;
1977;SDS011;989;53.016;8.346;2023-02-28T01:26:19;16.90;;;6.50;;
1977;SDS011;989;53.016;8.346;2023-02-28T01:28:46;12.88;;;6.25;;
1977;SDS011;989;53.016;8.346;2023-02-28T01:31:12;8.70;;;5.38;;
1977;SDS011;989;53.016;8.346;2023-02-28T01:33:38;9.88;;;5.68;;
1977;SDS011;989;53.016;8.346;2023-02-28T01:36:05;11.05;;;6.40;;
1977;SDS011;989;53.016;8.346;2023-02-28T01:38:32;10.77;;;6.00;;
1977;SDS011;989;53.016;8.346;2023-02-28T01:40:58;13.57;;;6.05;;
1977;SDS011;989;53.016;8.346;2023-02-28T01:43:26;11.70;;;6.13;;
1977;SDS011;989;53.016;8.346;2023-02-28T01:45:52;9.70;;;5.85;;
1977;SDS011;989;53.016;8.346;2023-02-28T01:48:19;15.40;;;5.90;;
1977;SDS011;989;53.016;8.346;2023-02-28T01:50:46;11.65;;;6.55;;
1977;SDS011;989;53.016;8.346;2023-02-28T01:53:16;13.52;;;6.90;;
1977;SDS011;989;53.016;8.346;2023-02-28T01:55:45;9.02;;;5.88;;
1977;SDS011;989;53.016;8.346;2023-02-28T01:58:12;10.07;;;5.90;;
1977;SDS011;989;53.016;8.346;2023-02-28T02:00:38;15.10;;;5.65;;
1977;SDS011;989;53.016;8.346;2023-02-28T02:03:11;10.52;;;5.85;;
1977;SDS011;989;53.016;8.346;2023-02-28T02:05:38;13.75;;;5.45;;
1977;SDS011;989;53.016;8.346;2023-02-28T02:08:05;20.75;;;6.15;;
1977;SDS011;989;53.016;8.346;2023-02-28T02:10:35;12.00;;;6.32;;
1977;SDS011;989;53.016;8.346;2023-02-28T02:15:49;9.95;;;4.55;;
1977;SDS011;989;53.016;8.346;2023-02-28T02:18:27;13.57;;;5.32;;
1977;SDS011;989;53.016;8.346;2023-02-28T02:28:58;11.15;;;5.00;;
1977;SDS011;989;53.016;8.346;2023-02-28T02:31:29;15.10;;;5.75;;
1977;SDS011;989;53.016;8.346;2023-02-28T02:39:31;13.05;;;7.13;;
1977;SDS011;989;53.016;8.346;2023-02-28T02:42:03;8.82;;;4.47;;
1977;SDS011;989;53.016;8.346;2023-02-28T02:44:31;13.23;;;4.45;;
1977;SDS011;989;53.016;8.346;2023-02-28T02:47:03;13.43;;;5.00;;
1977;SDS011;989;53.016;8.346;2023-02-28T02:49:32;10.35;;;4.95;;
1977;SDS011;989;53.016;8.346;2023-02-28T02:52:01;8.32;;;5.35;;
1977;SDS011;989;53.016;8.346;2023-02-28T02:54:30;11.82;;;5.30;;
1977;SDS011;989;53.016;8.346;2023-02-28T02:57:00;14.40;;;5.50;;
1977;SDS011;989;53.016;8.346;2023-02-28T02:59:27;8.48;;;4.20;;
1977;SDS011;989;53.016;8.346;2023-02-28T03:01:57;8.55;;;4.68;;
1977;SDS011;989;53.016;8.346;2023-02-28T03:04:27;12.15;;;6.03;;
1977;SDS011;989;53.016;8.346;2023-02-28T03:06:54;13.52;;;6.60;;
1977;SDS011;989;53.016;8.346;2023-02-28T03:09:24;10.57;;;5.72;;
1977;SDS011;989;53.016;8.346;2023-02-28T03:11:51;12.77;;;5.50;;
1977;SDS011;989;53.016;8.346;2023-02-28T03:22:19;13.13;;;5.35;;
1977;SDS011;989;53.016;8.346;2023-02-28T03:25:04;8.90;;;4.85;;
1977;SDS011;989;53.016;8.346;2023-02-28T03:27:41;8.18;;;4.80;;
1977;SDS011;989;53.016;8.346;2023-02-28T03:30:12;8.05;;;4.30;;
1977;SDS011;989;53.016;8.346;2023-02-28T03:32:41;12.55;;;4.97;;
1977;SDS011;989;53.016;8.346;2023-02-28T03:35:14;10.93;;;4.78;;
1977;SDS011;989;53.016;8.346;2023-02-28T03:37:46;7.97;;;4.60;;
1977;SDS011;989;53.016;8.346;2023-02-28T03:40:14;13.45;;;6.35;;
1977;SDS011;989;53.016;8.346;2023-02-28T03:42:43;15.95;;;5.53;;
1977;SDS011;989;53.016;8.346;2023-02-28T03:45:16;10.18;;;5.30;;
1977;SDS011;989;53.016;8.346;2023-02-28T03:50:29;11.68;;;5.70;;
1977;SDS011;989;53.016;8.346;2023-02-28T03:53:03;11.38;;;5.63;;
1977;SDS011;989;53.016;8.346;2023-02-28T03:55:32;22.65;;;5.90;;
1977;SDS011;989;53.016;8.346;2023-02-28T03:58:01;12.15;;;6.15;;
1977;SDS011;989;53.016;8.346;2023-02-28T04:00:34;15.27;;;5.70;;
1977;SDS011;989;53.016;8.346;2023-02-28T04:03:01;11.10;;;6.38;;
1977;SDS011;989;53.016;8.346;2023-02-28T04:05:28;9.63;;;5.15;;
1977;SDS011;989;53.016;8.346;2023-02-28T04:08:02;9.68;;;5.72;;
1977;SDS011;989;53.016;8.346;2023-02-28T04:10:28;16.60;;;6.95;;
1977;SDS011;989;53.016;8.346;2023-02-28T04:12:54;7.90;;;4.67;;
1977;SDS011;989;53.016;8.346;2023-02-28T04:15:20;16.43;;;5.80;;
1977;SDS011;989;53.016;8.346;2023-02-28T04:17:48;11.73;;;5.97;;
1977;SDS011;989;53.016;8.346;2023-02-28T04:20:14;16.63;;;5.07;;
1977;SDS011;989;53.016;8.346;2023-02-28T04:22:40;10.43;;;5.13;;
1977;SDS011;989;53.016;8.346;2023-02-28T04:25:06;8.05;;;5.20;;
1977;SDS011;989;53.016;8.346;2023-02-28T04:27:32;8.07;;;5.50;;
1977;SDS011;989;53.016;8.346;2023-02-28T04:29:58;9.57;;;5.50;;
1977;SDS011;989;53.016;8.346;2023-02-28T04:32:24;8.25;;;4.63;;
1977;SDS011;989;53.016;8.346;2023-02-28T04:34:50;10.27;;;5.07;;
1977;SDS011;989;53.016;8.346;2023-02-28T04:37:16;11.60;;;5.60;;
1977;SDS011;989;53.016;8.346;2023-02-28T04:39:42;11.45;;;5.20;;
1977;SDS011;989;53.016;8.346;2023-02-28T04:42:09;9.45;;;5.70;;
1977;SDS011;989;53.016;8.346;2023-02-28T04:44:35;13.02;;;5.80;;
1977;SDS011;989;53.016;8.346;2023-02-28T04:47:01;10.07;;;6.27;;
1977;SDS011;989;53.016;8.346;2023-02-28T04:49:27;12.90;;;6.40;;
1977;SDS011;989;53.016;8.346;2023-02-28T04:51:53;16.58;;;5.90;;
1977;SDS011;989;53.016;8.346;2023-02-28T04:54:20;9.13;;;4.88;;
1977;SDS011;989;53.016;8.346;2023-02-28T04:56:46;8.30;;;5.57;;
1977;SDS011;989;53.016;8.346;2023-02-28T04:59:16;6.90;;;4.40;;
1977;SDS011;989;53.016;8.346;2023-02-28T05:01:45;6.93;;;4.25;;
1977;SDS011;989;53.016;8.346;2023-02-28T05:04:11;10.57;;;6.20;;
1977;SDS011;989;53.016;8.346;2023-02-28T05:06:37;13.50;;;4.90;;
1977;SDS011;989;53.016;8.346;2023-02-28T05:09:03;9.13;;;5.03;;
1977;SDS011;989;53.016;8.346;2023-02-28T05:11:30;14.53;;;5.13;;
1977;SDS011;989;53.016;8.346;2023-02-28T05:14:00;9.82;;;5.13;;
1977;SDS011;989;53.016;8.346;2023-02-28T05:16:26;8.75;;;5.53;;
1977;SDS011;989;53.016;8.346;2023-02-28T05:18:52;16.38;;;6.03;;
1977;SDS011;989;53.016;8.346;2023-02-28T05:21:28;10.23;;;4.78;;
1977;SDS011;989;53.016;8.346;2023-02-28T05:23:55;9.57;;;5.43;;
1977;SDS011;989;53.016;8.346;2023-02-28T05:26:22;12.77;;;4.57;;
1977;SDS011;989;53.016;8.346;2023-02-28T05:28:48;23.63;;;7.55;;
1977;SDS011;989;53.016;8.346;2023-02-28T05:31:14;18.35;;;7.13;;
1977;SDS011;989;53.016;8.346;2023-02-28T05:33:40;11.63;;;6.57;;
1977;SDS011;989;53.016;8.346;2023-02-28T05:36:06;13.73;;;6.15;;
1977;SDS011;989;53.016;8.346;2023-02-28T05:38:32;25.38;;;7.97;;
1977;SDS011;989;53.016;8.346;2023-02-28T05:40:58;21.70;;;9.27;;
1977;SDS011;989;53.016;8.346;2023-02-28T05:43:24;19.98;;;8.63;;
1977;SDS011;989;53.016;8.346;2023-02-28T05:45:50;19.23;;;8.10;;
1977;SDS011;989;53.016;8.346;2023-02-28T05:48:16;13.77;;;6.83;;
1977;SDS011;989;53.016;8.346;2023-02-28T05:50:43;9.70;;;5.43;;
1977;SDS011;989;53.016;8.346;2023-02-28T05:53:11;11.00;;;4.75;;
1977;SDS011;989;53.016;8.346;2023-02-28T05:55:37;5.43;;;3.65;;
1977;SDS011;989;53.016;8.346;2023-02-28T05:58:03;26.27;;;4.38;;
1977;SDS011;989;53.016;8.346;2023-02-28T06:00:29;9.55;;;5.72;;
1977;SDS011;989;53.016;8.346;2023-02-28T06:02:55;12.38;;;7.03;;
1977;SDS011;989;53.016;8.346;2023-02-28T06:05:23;8.82;;;3.95;;
1977;SDS011;989;53.016;8.346;2023-02-28T06:07:49;6.82;;;4.05;;
1977;SDS011;989;53.016;8.346;2023-02-28T06:10:15;7.90;;;4.65;;
1977;SDS011;989;53.016;8.346;2023-02-28T06:12:41;10.43;;;4.40;;
1977;SDS011;989;53.016;8.346;2023-02-28T06:15:11;13.05;;;5.82;;
1977;SDS011;989;53.016;8.346;2023-02-28T06:17:37;13.63;;;5.18;;
1977;SDS011;989;53.016;8.346;2023-02-28T06:20:04;10.88;;;4.47;;
1977;SDS011;989;53.016;8.346;2023-02-28T06:22:30;6.68;;;4.55;;
1977;SDS011;989;53.016;8.346;2023-02-28T06:24:56;6.90;;;4.25;;
1977;SDS011;989;53.016;8.346;2023-02-28T06:27:22;7.68;;;3.72;;
1977;SDS011;989;53.016;8.346;2023-02-28T06:29:48;9.82;;;3.88;;
1977;SDS011;989;53.016;8.346;2023-02-28T06:32:15;11.02;;;4.85;;
1977;SDS011;989;53.016;8.346;2023-02-28T06:34:41;10.90;;;5.65;;
1977;SDS011;989;53.016;8.346;2023-02-28T06:37:07;9.82;;;4.57;;
1977;SDS011;989;53.016;8.346;2023-02-28T06:39:33;7.65;;;4.25;;
1977;SDS011;989;53.016;8.346;2023-02-28T06:41:59;7.90;;;4.85;;
1977;SDS011;989;53.016;8.346;2023-02-28T06:44:25;16.67;;;5.05;;
1977;SDS011;989;53.016;8.346;2023-02-28T06:46:51;11.07;;;5.10;;
1977;SDS011;989;53.016;8.346;2023-02-28T06:49:17;9.38;;;5.45;;
1977;SDS011;989;53.016;8.346;2023-02-28T06:51:44;10.73;;;6.07;;
1977;SDS011;989;53.016;8.346;2023-02-28T06:54:10;17.45;;;4.63;;
1977;SDS011;989;53.016;8.346;2023-02-28T06:56:36;10.40;;;5.55;;
1977;SDS011;989;53.016;8.346;2023-02-28T06:59:02;7.53;;;5.03;;
1977;SDS011;989;53.016;8.346;2023-02-28T07:01:29;14.85;;;4.72;;
1977;SDS011;989;53.016;8.346;2023-02-28T07:03:57;4.32;;;3.83;;
1977;SDS011;989;53.016;8.346;2023-02-28T07:06:23;8.35;;;4.95;;
1977;SDS011;989;53.016;8.346;2023-02-28T07:08:50;10.30;;;4.80;;
1977;SDS011;989;53.016;8.346;2023-02-28T07:11:17;7.53;;;4.55;;
1977;SDS011;989;53.016;8.346;2023-02-28T07:13:43;13.30;;;5.80;;
1977;SDS011;989;53.016;8.346;2023-02-28T07:16:10;7.35;;;4.50;;
1977;SDS011;989;53.016;8.346;2023-02-28T07:18:37;7.25;;;4.97;;
1977;SDS011;989;53.016;8.346;2023-02-28T07:21:04;7.13;;;4.45;;
1977;SDS011;989;53.016;8.346;2023-02-28T07:23:31;11.15;;;5.20;;
1977;SDS011;989;53.016;8.346;2023-02-28T07:25:57;10.50;;;5.53;;
1977;SDS011;989;53.016;8.346;2023-02-28T07:28:23;9.38;;;5.32;;
1977;SDS011;989;53.016;8.346;2023-02-28T07:30:49;17.30;;;4.18;;
1977;SDS011;989;53.016;8.346;2023-02-28T07:33:15;9.50;;;5.63;;
1977;SDS011;989;53.016;8.346;2023-02-28T07:35:41;8.98;;;5.40;;
1977;SDS011;989;53.016;8.346;2023-02-28T07:38:07;11.65;;;4.63;;
1977;SDS011;989;53.016;8.346;2023-02-28T07:40:34;7.60;;;4.78;;
1977;SDS011;989;53.016;8.346;2023-02-28T07:43:00;5.25;;;3.88;;
1977;SDS011;989;53.016;8.346;2023-02-28T07:45:27;6.80;;;3.97;;
1977;SDS011;989;53.016;8.346;2023-02-28T07:47:59;8.90;;;4.70;;
1977;SDS011;989;53.016;8.346;2023-02-28T07:50:25;9.93;;;4.57;;
1977;SDS011;989;53.016;8.346;2023-02-28T07:52:55;10.07;;;5.10;;
1977;SDS011;989;53.016;8.346;2023-02-28T07:55:21;8.35;;;4.72;;
1977;SDS011;989;53.016;8.346;2023-02-28T07:57:47;12.90;;;5.20;;
1977;SDS011;989;53.016;8.346;2023-02-28T08:00:13;8.50;;;4.73;;
1977;SDS011;989;53.016;8.346;2023-02-28T08:02:39;17.02;;;5.05;;
1977;SDS011;989;53.016;8.346;2023-02-28T08:05:06;6.00;;;3.75;;
1977;SDS011;989;53.016;8.346;2023-02-28T08:07:32;7.07;;;3.67;;
1977;SDS011;989;53.016;8.346;2023-02-28T08:09:58;8.88;;;3.63;;
1977;SDS011;989;53.016;8.346;2023-02-28T08:12:24;11.98;;;3.75;;
1977;SDS011;989;53.016;8.346;2023-02-28T08:14:50;8.00;;;3.85;;
1977;SDS011;989;53.016;8.346;2023-02-28T08:17:16;7.90;;;3.45;;
1977;SDS011;989;53.016;8.346;2023-02-28T08:19:44;6.57;;;4.13;;
1977;SDS011;989;53.016;8.346;2023-02-28T08:22:11;4.97;;;3.40;;
1977;SDS011;989;53.016;8.346;2023-02-28T08:24:37;4.85;;;3.00;;
1977;SDS011;989;53.016;8.346;2023-02-28T08:27:03;9.32;;;3.15;;
1977;SDS011;989;53.016;8.346;2023-02-28T08:29:29;5.30;;;2.80;;
1977;SDS011;989;53.016;8.346;2023-02-28T08:31:55;6.22;;;2.75;;
1977;SDS011;989;53.016;8.346;2023-02-28T08:34:21;6.10;;;3.45;;
1977;SDS011;989;53.016;8.346;2023-02-28T08:36:48;12.52;;;3.58;;
1977;SDS011;989;53.016;8.346;2023-02-28T08:39:14;4.80;;;3.47;;
1977;SDS011;989;53.016;8.346;2023-02-28T08:41:41;4.53;;;2.70;;
1977;SDS011;989;53.016;8.346;2023-02-28T08:44:07;3.80;;;2.42;;
1977;SDS011;989;53.016;8.346;2023-02-28T08:46:33;3.60;;;2.60;;
1977;SDS011;989;53.016;8.346;2023-02-28T08:48:59;3.17;;;2.45;;
1977;SDS011;989;53.016;8.346;2023-02-28T08:51:27;6.38;;;2.97;;
1977;SDS011;989;53.016;8.346;2023-02-28T08:53:54;3.28;;;2.30;;
1977;SDS011;989;53.016;8.346;2023-02-28T08:56:20;3.63;;;2.53;;
1977;SDS011;989;53.016;8.346;2023-02-28T08:58:46;6.35;;;2.55;;
1977;SDS011;989;53.016;8.346;2023-02-28T09:01:14;3.15;;;1.85;;
1977;SDS011;989;53.016;8.346;2023-02-28T09:03:40;3.10;;;2.10;;
1977;SDS011;989;53.016;8.346;2023-02-28T09:06:07;5.22;;;2.38;;
1977;SDS011;989;53.016;8.346;2023-02-28T09:08:33;5.95;;;2.88;;
1977;SDS011;989;53.016;8.346;2023-02-28T09:11:00;3.42;;;2.08;;
1977;SDS011;989;53.016;8.346;2023-02-28T09:13:26;11.13;;;2.92;;
1977;SDS011;989;53.016;8.346;2023-02-28T09:15:53;9.82;;;1.95;;
1977;SDS011;989;53.016;8.346;2023-02-28T09:18:20;4.07;;;2.20;;
1977;SDS011;989;53.016;8.346;2023-02-28T09:20:46;4.93;;;1.85;;
1977;SDS011;989;53.016;8.346;2023-02-28T09:23:12;2.28;;;1.90;;
1977;SDS011;989;53.016;8.346;2023-02-28T09:25:40;2.42;;;1.83;;
1977;SDS011;989;53.016;8.346;2023-02-28T09:28:10;2.38;;;1.60;;
1977;SDS011;989;53.016;8.346;2023-02-28T09:30:36;4.90;;;1.60;;
1977;SDS011;989;53.016;8.346;2023-02-28T09:33:02;4.38;;;1.70;;
1977;SDS011;989;53.016;8.346;2023-02-28T09:35:29;4.97;;;1.88;;
1977;SDS011;989;53.016;8.346;2023-02-28T09:37:56;3.75;;;2.30;;
1977;SDS011;989;53.016;8.346;2023-02-28T09:40:23;3.25;;;2.00;;
1977;SDS011;989;53.016;8.346;2023-02-28T09:42:50;3.55;;;1.65;;
1977;SDS011;989;53.016;8.346;2023-02-28T09:45:28;3.58;;;1.52;;
1977;SDS011;989;53.016;8.346;2023-02-28T09:47:58;2.20;;;1.63;;
1977;SDS011;989;53.016;8.346;2023-02-28T09:50:36;2.65;;;1.73;;
1977;SDS011;989;53.016;8.346;2023-02-28T09:53:06;5.15;;;2.00;;
1977;SDS011;989;53.016;8.346;2023-02-28T09:55:40;6.30;;;1.85;;
1977;SDS011;989;53.016;8.346;2023-02-28T09:58:12;3.42;;;1.98;;
1977;SDS011;989;53.016;8.346;2023-02-28T10:00:41;2.50;;;1.55;;
1977;SDS011;989;53.016;8.346;2023-02-28T10:03:30;3.15;;;1.50;;
1977;SDS011;989;53.016;8.346;2023-02-28T10:05:56;1.77;;;1.40;;
1977;SDS011;989;53.016;8.346;2023-02-28T10:08:25;2.40;;;1.60;;
1977;SDS011;989;53.016;8.346;2023-02-28T10:10:55;3.40;;;1.90;;
1977;SDS011;989;53.016;8.346;2023-02-28T10:13:26;2.60;;;1.33;;
1977;SDS011;989;53.016;8.346;2023-02-28T10:15:55;2.13;;;1.40;;
1977;SDS011;989;53.016;8.346;2023-02-28T10:18:27;3.03;;;1.65;;
1977;SDS011;989;53.016;8.346;2023-02-28T10:20:55;3.10;;;2.17;;
1977;SDS011;989;53.016;8.346;2023-02-28T10:25:58;5.30;;;2.03;;
1977;SDS011;989;53.016;8.346;2023-02-28T10:28:24;3.88;;;1.80;;
1977;SDS011;989;53.016;8.346;2023-02-28T10:30:51;3.40;;;1.85;;
1977;SDS011;989;53.016;8.346;2023-02-28T10:35:44;3.28;;;1.50;;
1977;SDS011;989;53.016;8.346;2023-02-28T10:38:55;3.55;;;1.85;;
1977;SDS011;989;53.016;8.346;2023-02-28T10:41:03;3.38;;;2.00;;
1977;SDS011;989;53.016;8.346;2023-02-28T10:43:30;4.18;;;2.65;;
1977;SDS011;989;53.016;8.346;2023-02-28T10:53:23;3.22;;;2.13;;
1977;SDS011;989;53.016;8.346;2023-02-28T10:58:22;2.70;;;1.60;;
1977;SDS011;989;53.016;8.346;2023-02-28T11:00:49;4.03;;;1.95;;
1977;SDS011;989;53.016;8.346;2023-02-28T11:03:25;3.35;;;1.77;;
1977;SDS011;989;53.016;8.346;2023-02-28T11:05:54;2.65;;;1.83;;
1977;SDS011;989;53.016;8.346;2023-02-28T11:08:20;4.72;;;1.75;;
1977;SDS011;989;53.016;8.346;2023-02-28T11:10:47;3.72;;;2.10;;
1977;SDS011;989;53.016;8.346;2023-02-28T11:13:17;3.03;;;1.65;;
1977;SDS011;989;53.016;8.346;2023-02-28T11:15:50;3.15;;;1.88;;
1977;SDS011;989;53.016;8.346;2023-02-28T11:18:24;3.38;;;1.65;;
1977;SDS011;989;53.016;8.346;2023-02-28T11:20:53;2.63;;;1.90;;
1977;SDS011;989;53.016;8.346;2023-02-28T11:23:19;2.50;;;1.80;;
1977;SDS011;989;53.016;8.346;2023-02-28T11:25:47;4.70;;;2.03;;
1977;SDS011;989;53.016;8.346;2023-02-28T11:28:34;3.65;;;1.75;;
1977;SDS011;989;53.016;8.346;2023-02-28T11:33:27;1.80;;;1.25;;
1977;SDS011;989;53.016;8.346;2023-02-28T11:36:02;2.92;;;1.63;;
1977;SDS011;989;53.016;8.346;2023-02-28T11:38:29;2.80;;;1.67;;
1977;SDS011;989;53.016;8.346;2023-02-28T11:43:34;2.50;;;1.60;;
1977;SDS011;989;53.016;8.346;2023-02-28T11:51:49;3.83;;;1.80;;
1977;SDS011;989;53.016;8.346;2023-02-28T12:02:15;2.77;;;1.70;;
1977;SDS011;989;53.016;8.346;2023-02-28T12:05:08;2.30;;;1.67;;
1977;SDS011;989;53.016;8.346;2023-02-28T12:10:11;2.40;;;1.40;;
1977;SDS011;989;53.016;8.346;2023-02-28T12:12:50;2.33;;;1.57;;
1977;SDS011;989;53.016;8.346;2023-02-28T12:18:04;3.23;;;1.77;;
1977;SDS011;989;53.016;8.346;2023-02-28T12:20:35;2.37;;;1.60;;
1977;SDS011;989;53.016;8.346;2023-02-28T12:23:21;2.83;;;1.70;;
1977;SDS011;989;53.016;8.346;2023-02-28T12:28:21;3.80;;;1.87;;
1977;SDS011;989;53.016;8.346;2023-02-28T12:30:53;3.63;;;1.97;;
1977;SDS011;989;53.016;8.346;2023-02-28T12:33:22;2.70;;;1.40;;
1977;SDS011;989;53.016;8.346;2023-02-28T12:35:57;2.57;;;1.87;;
1977;SDS011;989;53.016;8.346;2023-02-28T12:38:28;2.83;;;1.70;;
1977;SDS011;989;53.016;8.346;2023-02-28T12:41:03;2.90;;;1.60;;
1977;SDS011;989;53.016;8.346;2023-02-28T12:43:34;2.97;;;1.60;;
1977;SDS011;989;53.016;8.346;2023-02-28T12:46:10;3.50;;;2.13;;
1977;SDS011;989;53.016;8.346;2023-02-28T12:48:46;2.67;;;1.93;;
1977;SDS011;989;53.016;8.346;2023-02-28T12:51:13;6.37;;;1.83;;
1977;SDS011;989;53.016;8.346;2023-02-28T12:58:49;3.53;;;1.60;;
1977;SDS011;989;53.016;8.346;2023-02-28T13:03:51;5.70;;;1.87;;
1977;SDS011;989;53.016;8.346;2023-02-28T13:09:12;4.33;;;2.53;;
1977;SDS011;989;53.016;8.346;2023-02-28T13:11:43;4.43;;;2.20;;
1977;SDS011;989;53.016;8.346;2023-02-28T13:14:21;2.78;;;2.25;;
1977;SDS011;989;53.016;8.346;2023-02-28T13:16:55;4.55;;;2.00;;
1977;SDS011;989;53.016;8.346;2023-02-28T13:19:23;2.47;;;1.90;;
1977;SDS011;989;53.016;8.346;2023-02-28T13:21:49;3.22;;;2.35;;
1977;SDS011;989;53.016;8.346;2023-02-28T13:29:31;7.43;;;3.00;;
1977;SDS011;989;53.016;8.346;2023-02-28T13:34:34;7.60;;;1.75;;
1977;SDS011;989;53.016;8.346;2023-02-28T13:39:49;2.88;;;1.92;;
1977;SDS011;989;53.016;8.346;2023-02-28T13:42:22;5.95;;;2.45;;
1977;SDS011;989;53.016;8.346;2023-02-28T13:45:35;3.72;;;2.60;;
1977;SDS011;989;53.016;8.346;2023-02-28T13:47:42;3.10;;;2.10;;
1977;SDS011;989;53.016;8.346;2023-02-28T13:50:20;7.43;;;2.50;;
1977;SDS011;989;53.016;8.346;2023-02-28T13:52:54;3.55;;;2.40;;
1977;SDS011;989;53.016;8.346;2023-02-28T13:58:20;2.22;;;1.90;;
1977;SDS011;989;53.016;8.346;2023-02-28T14:03:23;2.67;;;2.00;;
1977;SDS011;989;53.016;8.346;2023-02-28T14:06:07;3.45;;;1.65;;
1977;SDS011;989;53.016;8.346;2023-02-28T14:08:34;2.72;;;1.63;;
1977;SDS011;989;53.016;8.346;2023-02-28T14:11:05;4.53;;;1.70;;
1977;SDS011;989;53.016;8.346;2023-02-28T14:13:39;6.17;;;1.97;;
1977;SDS011;989;53.016;8.346;2023-02-28T14:16:17;3.00;;;1.93;;
1977;SDS011;989;53.016;8.346;2023-02-28T14:21:22;2.70;;;1.53;;
1977;SDS011;989;53.016;8.346;2023-02-28T14:31:15;2.83;;;1.77;;
1977;SDS011;989;53.016;8.346;2023-02-28T14:36:26;4.00;;;1.63;;
1977;SDS011;989;53.016;8.346;2023-02-28T14:38:55;2.40;;;1.33;;
1977;SDS011;989;53.016;8.346;2023-02-28T14:44:00;3.50;;;1.57;;
1977;SDS011;989;53.016;8.346;2023-02-28T14:46:28;4.60;;;1.67;;
1977;SDS011;989;53.016;8.346;2023-02-28T14:48:55;2.30;;;1.53;;
1977;SDS011;989;53.016;8.346;2023-02-28T14:51:22;5.17;;;1.70;;
1977;SDS011;989;53.016;8.346;2023-02-28T14:53:50;7.60;;;2.50;;
1977;SDS011;989;53.016;8.346;2023-02-28T14:56:27;6.20;;;1.90;;
1977;SDS011;989;53.016;8.346;2023-02-28T14:58:56;3.23;;;1.90;;
1977;SDS011;989;53.016;8.346;2023-02-28T15:01:23;7.37;;;2.50;;
1977;SDS011;989;53.016;8.346;2023-02-28T15:03:56;2.90;;;1.73;;
1977;SDS011;989;53.016;8.346;2023-02-28T15:06:23;2.77;;;2.10;;
1977;SDS011;989;53.016;8.346;2023-02-28T15:09:06;5.90;;;1.97;;
1977;SDS011;989;53.016;8.346;2023-02-28T15:11:32;3.90;;;2.10;;
1977;SDS011;989;53.016;8.346;2023-02-28T15:13:59;4.83;;;2.10;;
1977;SDS011;989;53.016;8.346;2023-02-28T15:21:23;5.60;;;2.50;;
1977;SDS011;989;53.016;8.346;2023-02-28T15:23:51;3.63;;;2.43;;
1977;SDS011;989;53.016;8.346;2023-02-28T15:26:19;4.83;;;2.70;;
1977;SDS011;989;53.016;8.346;2023-02-28T15:28:47;8.00;;;2.33;;
1977;SDS011;989;53.016;8.346;2023-02-28T15:31:22;6.10;;;2.73;;
1977;SDS011;989;53.016;8.346;2023-02-28T15:33:56;5.20;;;2.80;;
1977;SDS011;989;53.016;8.346;2023-02-28T15:36:24;3.77;;;2.17;;
1977;SDS011;989;53.016;8.346;2023-02-28T15:38:52;4.13;;;1.90;;
1977;SDS011;989;53.016;8.346;2023-02-28T15:41:26;2.90;;;2.00;;
1977;SDS011;989;53.016;8.346;2023-02-28T15:44:14;3.87;;;1.80;;
1977;SDS011;989;53.016;8.346;2023-02-28T15:46:39;3.23;;;1.70;;
1977;SDS011;989;53.016;8.346;2023-02-28T15:49:12;2.83;;;1.67;;
1977;SDS011;989;53.016;8.346;2023-02-28T15:51:42;5.30;;;1.90;;
1977;SDS011;989;53.016;8.346;2023-02-28T15:54:12;4.17;;;2.83;;
1977;SDS011;989;53.016;8.346;2023-02-28T15:56:43;3.30;;;2.20;;
1977;SDS011;989;53.016;8.346;2023-02-28T15:59:14;5.10;;;2.60;;
1977;SDS011;989;53.016;8.346;2023-02-28T16:01:41;3.93;;;2.23;;
1977;SDS011;989;53.016;8.346;2023-02-28T16:04:14;7.63;;;2.20;;
1977;SDS011;989;53.016;8.346;2023-02-28T16:06:42;2.75;;;2.13;;
1977;SDS011;989;53.016;8.346;2023-02-28T16:09:10;4.43;;;2.55;;
1977;SDS011;989;53.016;8.346;2023-02-28T16:11:38;2.70;;;2.40;;
1977;SDS011;989;53.016;8.346;2023-02-28T16:14:06;4.97;;;2.40;;
1977;SDS011;989;53.016;8.346;2023-02-28T16:16:32;3.30;;;2.30;;
1977;SDS011;989;53.016;8.346;2023-02-28T16:18:59;4.57;;;2.70;;
1977;SDS011;989;53.016;8.346;2023-02-28T16:21:25;5.93;;;2.30;;
1977;SDS011;989;53.016;8.346;2023-02-28T16:23:51;7.60;;;2.63;;
1977;SDS011;989;53.016;8.346;2023-02-28T16:26:21;6.53;;;2.67;;
1977;SDS011;989;53.016;8.346;2023-02-28T16:28:48;6.78;;;2.55;;
1977;SDS011;989;53.016;8.346;2023-02-28T16:31:15;3.63;;;1.90;;
1977;SDS011;989;53.016;8.346;2023-02-28T16:33:41;14.13;;;3.72;;
1977;SDS011;989;53.016;8.346;2023-02-28T16:36:10;4.60;;;2.30;;
1977;SDS011;989;53.016;8.346;2023-02-28T16:38:38;11.45;;;3.15;;
1977;SDS011;989;53.016;8.346;2023-02-28T16:41:04;4.15;;;2.17;;
1977;SDS011;989;53.016;8.346;2023-02-28T16:43:30;6.57;;;3.38;;
1977;SDS011;989;53.016;8.346;2023-02-28T16:45:57;2.78;;;1.80;;
1977;SDS011;989;53.016;8.346;2023-02-28T16:48:24;8.63;;;2.65;;
1977;SDS011;989;53.016;8.346;2023-02-28T16:50:51;4.97;;;2.97;;
1977;SDS011;989;53.016;8.346;2023-02-28T16:53:17;6.82;;;3.70;;
1977;SDS011;989;53.016;8.346;2023-02-28T16:55:43;11.67;;;5.53;;
1977;SDS011;989;53.016;8.346;2023-02-28T16:58:13;10.38;;;3.42;;
1977;SDS011;989;53.016;8.346;2023-02-28T17:00:39;9.27;;;5.22;;
1977;SDS011;989;53.016;8.346;2023-02-28T17:03:08;8.17;;;4.27;;
1977;SDS011;989;53.016;8.346;2023-02-28T17:05:37;7.28;;;3.13;;
1977;SDS011;989;53.016;8.346;2023-02-28T17:08:04;8.95;;;3.33;;
1977;SDS011;989;53.016;8.346;2023-02-28T17:10:30;19.42;;;9.20;;
1977;SDS011;989;53.016;8.346;2023-02-28T17:12:56;13.10;;;5.65;;
1977;SDS011;989;53.016;8.346;2023-02-28T17:15:22;19.30;;;9.60;;
1977;SDS011;989;53.016;8.346;2023-02-28T17:17:48;6.18;;;3.13;;
1977;SDS011;989;53.016;8.346;2023-02-28T17:20:16;7.18;;;4.70;;
1977;SDS011;989;53.016;8.346;2023-02-28T17:22:42;12.35;;;5.70;;
1977;SDS011;989;53.016;8.346;2023-02-28T17:25:08;8.70;;;4.97;;
1977;SDS011;989;53.016;8.346;2023-02-28T17:27:35;7.03;;;4.30;;